sensor_id;sensor_type;location;lat;lon;timestamp;pressure;altitude;pressure_sealevel;temperature
58307;BMP280;44116;50.884;4.768;2024-01-10T00:00:43;102330.0;;;-6.1
58307;BMP280;44116;50.884;4.768;2024-01-10T00:02:43;102330.0;;;-6.2
58307;BMP280;44116;50.884;4.768;2024-01-10T00:04:41;102340.0;;;-6.1
58307;BMP280;44116;50.884;4.768;2024-01-10T00:06:41;102330.0;;;-6.1
58307;BMP280;44116;50.884;4.768;2024-01-10T00:08:40;102340.0;;;-6.0
58307;BMP280;44116;50.884;4.768;2024-01-10T00:10:40;102340.0;;;-6.1
58307;BMP280;44116;50.884;4.768;2024-01-10T00:12:39;102340.0;;;-6.2
58307;BMP280;44116;50.884;4.768;2024-01-10T00:14:38;102340.0;;;-6.2
58307;BMP280;44116;50.884;4.768;2024-01-10T00:16:38;102340.0;;;-6.2
58307;BMP280;44116;50.884;4.768;2024-01-10T00:18:37;102340.0;;;-6.2
58307;BMP280;44116;50.884;4.768;2024-01-10T00:20:36;102350.0;;;-6.2
58307;BMP280;44116;50.884;4.768;2024-01-10T00:22:36;102340.0;;;-6.3
58307;BMP280;44116;50.884;4.768;2024-01-10T00:26:34;102350.0;;;-6.2
58307;BMP280;44116;50.884;4.768;2024-01-10T00:28:34;102360.0;;;-6.2
58307;BMP280;44116;50.884;4.768;2024-01-10T00:30:33;102370.0;;;-6.2
58307;BMP280;44116;50.884;4.768;2024-01-10T00:32:32;102370.0;;;-6.2
58307;BMP280;44116;50.884;4.768;2024-01-10T00:34:32;102370.0;;;-6.3
58307;BMP280;44116;50.884;4.768;2024-01-10T00:36:31;102370.0;;;-6.3
58307;BMP280;44116;50.884;4.768;2024-01-10T00:38:30;102400.0;;;-6.2
58307;BMP280;44116;50.884;4.768;2024-01-10T00:40:30;102390.0;;;-6.3
58307;BMP280;44116;50.884;4.768;2024-01-10T00:42:29;102400.0;;;-6.3
58307;BMP280;44116;50.884;4.768;2024-01-10T00:44:29;102409.99999999999;;;-6.2
58307;BMP280;44116;50.884;4.768;2024-01-10T00:46:28;102400.0;;;-6.3
58307;BMP280;44116;50.884;4.768;2024-01-10T00:50:27;102390.0;;;-6.4
58307;BMP280;44116;50.884;4.768;2024-01-10T00:54:25;102409.99999999999;;;-6.3
58307;BMP280;44116;50.884;4.768;2024-01-10T00:56:26;102409.99999999999;;;-6.2
58307;BMP280;44116;50.884;4.768;2024-01-10T00:58:24;102400.0;;;-6.3
58307;BMP280;44116;50.884;4.768;2024-01-10T01:00:24;102400.0;;;-6.5
58307;BMP280;44116;50.884;4.768;2024-01-10T01:02:23;102409.99999999999;;;-6.5
58307;BMP280;44116;50.884;4.768;2024-01-10T01:04:22;102409.99999999999;;;-6.6
58307;BMP280;44116;50.884;4.768;2024-01-10T01:06:22;102430.0;;;-6.5
58307;BMP280;44116;50.884;4.768;2024-01-10T01:08:21;102440.00000000001;;;-6.4
58307;BMP280;44116;50.884;4.768;2024-01-10T01:10:20;102440.00000000001;;;-6.4
58307;BMP280;44116;50.884;4.768;2024-01-10T01:12:20;102440.00000000001;;;-6.5
58307;BMP280;44116;50.884;4.768;2024-01-10T01:14:19;102440.00000000001;;;-6.5
58307;BMP280;44116;50.884;4.768;2024-01-10T01:16:18;102440.00000000001;;;-6.6
58307;BMP280;44116;50.884;4.768;2024-01-10T01:18:18;102459.99999999999;;;-6.5
58307;BMP280;44116;50.884;4.768;2024-01-10T01:20:17;102450.0;;;-6.4
58307;BMP280;44116;50.884;4.768;2024-01-10T01:22:16;102470.0;;;-6.3
58307;BMP280;44116;50.884;4.768;2024-01-10T01:24:16;102459.99999999999;;;-6.4
58307;BMP280;44116;50.884;4.768;2024-01-10T01:26:15;102440.00000000001;;;-6.5
58307;BMP280;44116;50.884;4.768;2024-01-10T01:28:15;102450.0;;;-6.5
58307;BMP280;44116;50.884;4.768;2024-01-10T01:30:14;102450.0;;;-6.4
58307;BMP280;44116;50.884;4.768;2024-01-10T01:32:13;102450.0;;;-6.4
58307;BMP280;44116;50.884;4.768;2024-01-10T01:34:13;102430.0;;;-6.7
58307;BMP280;44116;50.884;4.768;2024-01-10T01:36:12;102459.99999999999;;;-6.4
58307;BMP280;44116;50.884;4.768;2024-01-10T01:38:11;102450.0;;;-6.6
58307;BMP280;44116;50.884;4.768;2024-01-10T01:40:11;102450.0;;;-6.6
58307;BMP280;44116;50.884;4.768;2024-01-10T01:42:10;102440.00000000001;;;-6.9
58307;BMP280;44116;50.884;4.768;2024-01-10T01:44:09;102450.0;;;-7.1
58307;BMP280;44116;50.884;4.768;2024-01-10T01:46:09;102480.0;;;-7.0
58307;BMP280;44116;50.884;4.768;2024-01-10T01:48:08;102500.0;;;-6.9
58307;BMP280;44116;50.884;4.768;2024-01-10T01:50:08;102509.99999999999;;;-6.8
58307;BMP280;44116;50.884;4.768;2024-01-10T01:52:07;102509.99999999999;;;-6.8
58307;BMP280;44116;50.884;4.768;2024-01-10T01:54:06;102500.0;;;-7.1
58307;BMP280;44116;50.884;4.768;2024-01-10T01:56:06;102509.99999999999;;;-6.9
58307;BMP280;44116;50.884;4.768;2024-01-10T01:58:05;102509.99999999999;;;-7.0
58307;BMP280;44116;50.884;4.768;2024-01-10T02:00:05;102509.99999999999;;;-7.0
58307;BMP280;44116;50.884;4.768;2024-01-10T02:04:03;102509.99999999999;;;-7.2
58307;BMP280;44116;50.884;4.768;2024-01-10T02:06:02;102530.0;;;-7.2
58307;BMP280;44116;50.884;4.768;2024-01-10T02:08:02;102540.00000000001;;;-7.1
58307;BMP280;44116;50.884;4.768;2024-01-10T02:10:01;102540.00000000001;;;-7.1
58307;BMP280;44116;50.884;4.768;2024-01-10T02:14:00;102550.0;;;-7.0
58307;BMP280;44116;50.884;4.768;2024-01-10T02:17:58;102550.0;;;-7.0
58307;BMP280;44116;50.884;4.768;2024-01-10T02:20:07;102530.0;;;-7.2
58307;BMP280;44116;50.884;4.768;2024-01-10T02:21:57;102550.0;;;-7.1
58307;BMP280;44116;50.884;4.768;2024-01-10T02:23:56;102540.00000000001;;;-7.3
58307;BMP280;44116;50.884;4.768;2024-01-10T02:25:56;102559.99999999999;;;-7.2
58307;BMP280;44116;50.884;4.768;2024-01-10T02:27:55;102550.0;;;-7.3
58307;BMP280;44116;50.884;4.768;2024-01-10T02:29:54;102550.0;;;-7.4
58307;BMP280;44116;50.884;4.768;2024-01-10T02:31:54;102540.00000000001;;;-7.6
58307;BMP280;44116;50.884;4.768;2024-01-10T02:33:53;102590.00000000001;;;-7.0
58307;BMP280;44116;50.884;4.768;2024-01-10T02:35:52;102559.99999999999;;;-7.3
58307;BMP280;44116;50.884;4.768;2024-01-10T02:37:52;102570.0;;;-7.4
58307;BMP280;44116;50.884;4.768;2024-01-10T02:39:51;102559.99999999999;;;-7.4
58307;BMP280;44116;50.884;4.768;2024-01-10T02:41:51;102559.99999999999;;;-7.4
58307;BMP280;44116;50.884;4.768;2024-01-10T02:43:50;102570.0;;;-7.3
58307;BMP280;44116;50.884;4.768;2024-01-10T02:45:49;102570.0;;;-7.3
58307;BMP280;44116;50.884;4.768;2024-01-10T02:47:49;102559.99999999999;;;-7.5
58307;BMP280;44116;50.884;4.768;2024-01-10T02:49:48;102550.0;;;-7.8
58307;BMP280;44116;50.884;4.768;2024-01-10T02:51:48;102570.0;;;-7.7
58307;BMP280;44116;50.884;4.768;2024-01-10T02:53:47;102570.0;;;-7.8
58307;BMP280;44116;50.884;4.768;2024-01-10T02:55:46;102590.00000000001;;;-7.8
58307;BMP280;44116;50.884;4.768;2024-01-10T02:57:45;102620.0;;;-7.6
58307;BMP280;44116;50.884;4.768;2024-01-10T02:59:45;102600.0;;;-7.9
58307;BMP280;44116;50.884;4.768;2024-01-10T03:01:44;102600.0;;;-8.0
58307;BMP280;44116;50.884;4.768;2024-01-10T03:03:43;102630.0;;;-7.9
58307;BMP280;44116;50.884;4.768;2024-01-10T03:05:43;102630.0;;;-7.8
58307;BMP280;44116;50.884;4.768;2024-01-10T03:07:42;102640.00000000001;;;-7.7
58307;BMP280;44116;50.884;4.768;2024-01-10T03:09:41;102630.0;;;-7.8
58307;BMP280;44116;50.884;4.768;2024-01-10T03:11:41;102650.0;;;-7.6
58307;BMP280;44116;50.884;4.768;2024-01-10T03:13:40;102650.0;;;-7.4
58307;BMP280;44116;50.884;4.768;2024-01-10T03:15:39;102630.0;;;-7.6
58307;BMP280;44116;50.884;4.768;2024-01-10T03:17:39;102640.00000000001;;;-7.5
58307;BMP280;44116;50.884;4.768;2024-01-10T03:19:38;102640.00000000001;;;-7.7
58307;BMP280;44116;50.884;4.768;2024-01-10T03:21:37;102630.0;;;-7.8
58307;BMP280;44116;50.884;4.768;2024-01-10T03:23:37;102620.0;;;-7.8
58307;BMP280;44116;50.884;4.768;2024-01-10T03:25:36;102609.99999999999;;;-8.4
58307;BMP280;44116;50.884;4.768;2024-01-10T03:27:35;102659.99999999999;;;-7.7
58307;BMP280;44116;50.884;4.768;2024-01-10T03:29:35;102650.0;;;-7.8
58307;BMP280;44116;50.884;4.768;2024-01-10T03:31:34;102620.0;;;-8.1
58307;BMP280;44116;50.884;4.768;2024-01-10T03:33:33;102630.0;;;-8.1
58307;BMP280;44116;50.884;4.768;2024-01-10T03:35:33;102640.00000000001;;;-8.0
58307;BMP280;44116;50.884;4.768;2024-01-10T03:37:32;102630.0;;;-8.1
58307;BMP280;44116;50.884;4.768;2024-01-10T03:39:31;102640.00000000001;;;-7.9
58307;BMP280;44116;50.884;4.768;2024-01-10T03:41:31;102640.00000000001;;;-7.6
58307;BMP280;44116;50.884;4.768;2024-01-10T03:43:30;102609.99999999999;;;-8.1
58307;BMP280;44116;50.884;4.768;2024-01-10T03:45:29;102620.0;;;-8.3
58307;BMP280;44116;50.884;4.768;2024-01-10T03:47:29;102630.0;;;-8.1
58307;BMP280;44116;50.884;4.768;2024-01-10T03:49:28;102630.0;;;-8.2
58307;BMP280;44116;50.884;4.768;2024-01-10T03:51:28;102640.00000000001;;;-8.0
58307;BMP280;44116;50.884;4.768;2024-01-10T03:53:27;102620.0;;;-8.1
58307;BMP280;44116;50.884;4.768;2024-01-10T03:55:26;102609.99999999999;;;-8.2
58307;BMP280;44116;50.884;4.768;2024-01-10T03:57:26;102620.0;;;-8.0
58307;BMP280;44116;50.884;4.768;2024-01-10T03:59:25;102609.99999999999;;;-8.0
58307;BMP280;44116;50.884;4.768;2024-01-10T04:01:24;102609.99999999999;;;-8.0
58307;BMP280;44116;50.884;4.768;2024-01-10T04:03:24;102600.0;;;-8.1
58307;BMP280;44116;50.884;4.768;2024-01-10T04:05:23;102580.0;;;-8.5
58307;BMP280;44116;50.884;4.768;2024-01-10T04:07:22;102609.99999999999;;;-8.3
58307;BMP280;44116;50.884;4.768;2024-01-10T04:09:22;102620.0;;;-8.1
58307;BMP280;44116;50.884;4.768;2024-01-10T04:11:21;102620.0;;;-8.0
58307;BMP280;44116;50.884;4.768;2024-01-10T04:15:20;102609.99999999999;;;-8.3
58307;BMP280;44116;50.884;4.768;2024-01-10T04:17:19;102620.0;;;-8.1
58307;BMP280;44116;50.884;4.768;2024-01-10T04:19:18;102600.0;;;-8.3
58307;BMP280;44116;50.884;4.768;2024-01-10T04:21:18;102630.0;;;-8.0
58307;BMP280;44116;50.884;4.768;2024-01-10T04:23:17;102600.0;;;-8.4
58307;BMP280;44116;50.884;4.768;2024-01-10T04:25:16;102600.0;;;-8.5
58307;BMP280;44116;50.884;4.768;2024-01-10T04:29:15;102609.99999999999;;;-8.5
58307;BMP280;44116;50.884;4.768;2024-01-10T04:31:14;102640.00000000001;;;-8.1
58307;BMP280;44116;50.884;4.768;2024-01-10T04:33:14;102620.0;;;-8.3
58307;BMP280;44116;50.884;4.768;2024-01-10T04:35:13;102630.0;;;-8.2
58307;BMP280;44116;50.884;4.768;2024-01-10T04:37:12;102620.0;;;-8.4
58307;BMP280;44116;50.884;4.768;2024-01-10T04:39:12;102630.0;;;-8.5
58307;BMP280;44116;50.884;4.768;2024-01-10T04:41:11;102640.00000000001;;;-8.4
58307;BMP280;44116;50.884;4.768;2024-01-10T04:43:10;102640.00000000001;;;-8.4
58307;BMP280;44116;50.884;4.768;2024-01-10T04:45:10;102650.0;;;-8.2
58307;BMP280;44116;50.884;4.768;2024-01-10T04:47:09;102650.0;;;-8.2
58307;BMP280;44116;50.884;4.768;2024-01-10T04:49:08;102630.0;;;-8.3
58307;BMP280;44116;50.884;4.768;2024-01-10T04:51:08;102640.00000000001;;;-8.0
58307;BMP280;44116;50.884;4.768;2024-01-10T04:53:07;102640.00000000001;;;-8.0
58307;BMP280;44116;50.884;4.768;2024-01-10T04:57:06;102620.0;;;-8.0
58307;BMP280;44116;50.884;4.768;2024-01-10T04:59:05;102630.0;;;-7.9
58307;BMP280;44116;50.884;4.768;2024-01-10T05:03:04;102609.99999999999;;;-8.1
58307;BMP280;44116;50.884;4.768;2024-01-10T05:05:04;102620.0;;;-8.0
58307;BMP280;44116;50.884;4.768;2024-01-10T05:07:03;102600.0;;;-8.2
58307;BMP280;44116;50.884;4.768;2024-01-10T05:09:02;102600.0;;;-8.3
58307;BMP280;44116;50.884;4.768;2024-01-10T05:11:01;102609.99999999999;;;-8.2
58307;BMP280;44116;50.884;4.768;2024-01-10T05:13:01;102620.0;;;-8.2
58307;BMP280;44116;50.884;4.768;2024-01-10T05:15:00;102630.0;;;-8.1
58307;BMP280;44116;50.884;4.768;2024-01-10T05:16:59;102620.0;;;-8.2
58307;BMP280;44116;50.884;4.768;2024-01-10T05:19:00;102640.00000000001;;;-8.0
58307;BMP280;44116;50.884;4.768;2024-01-10T05:20:58;102620.0;;;-8.2
58307;BMP280;44116;50.884;4.768;2024-01-10T05:22:57;102630.0;;;-7.9
58307;BMP280;44116;50.884;4.768;2024-01-10T05:24:57;102609.99999999999;;;-8.3
58307;BMP280;44116;50.884;4.768;2024-01-10T05:26:56;102620.0;;;-8.4
58307;BMP280;44116;50.884;4.768;2024-01-10T05:28:55;102620.0;;;-8.2
58307;BMP280;44116;50.884;4.768;2024-01-10T05:30:55;102620.0;;;-8.2
58307;BMP280;44116;50.884;4.768;2024-01-10T05:32:54;102630.0;;;-8.2
58307;BMP280;44116;50.884;4.768;2024-01-10T05:34:53;102620.0;;;-8.4
58307;BMP280;44116;50.884;4.768;2024-01-10T05:36:53;102640.00000000001;;;-8.2
58307;BMP280;44116;50.884;4.768;2024-01-10T05:38:52;102640.00000000001;;;-8.2
58307;BMP280;44116;50.884;4.768;2024-01-10T05:40:51;102640.00000000001;;;-8.1
58307;BMP280;44116;50.884;4.768;2024-01-10T05:42:51;102630.0;;;-8.4
58307;BMP280;44116;50.884;4.768;2024-01-10T05:44:50;102630.0;;;-8.4
58307;BMP280;44116;50.884;4.768;2024-01-10T05:46:49;102630.0;;;-8.4
58307;BMP280;44116;50.884;4.768;2024-01-10T05:48:49;102650.0;;;-8.0
58307;BMP280;44116;50.884;4.768;2024-01-10T05:50:48;102630.0;;;-8.0
58307;BMP280;44116;50.884;4.768;2024-01-10T05:52:47;102620.0;;;-8.1
58307;BMP280;44116;50.884;4.768;2024-01-10T05:54:47;102620.0;;;-8.2
58307;BMP280;44116;50.884;4.768;2024-01-10T05:56:46;102630.0;;;-8.1
58307;BMP280;44116;50.884;4.768;2024-01-10T05:58:45;102630.0;;;-8.2
58307;BMP280;44116;50.884;4.768;2024-01-10T06:02:44;102620.0;;;-8.2
58307;BMP280;44116;50.884;4.768;2024-01-10T06:04:43;102609.99999999999;;;-8.2
58307;BMP280;44116;50.884;4.768;2024-01-10T06:06:43;102630.0;;;-7.9
58307;BMP280;44116;50.884;4.768;2024-01-10T06:08:42;102620.0;;;-8.1
58307;BMP280;44116;50.884;4.768;2024-01-10T06:10:42;102600.0;;;-8.2
58307;BMP280;44116;50.884;4.768;2024-01-10T06:12:41;102620.0;;;-8.1
58307;BMP280;44116;50.884;4.768;2024-01-10T06:16:40;102620.0;;;-7.9
58307;BMP280;44116;50.884;4.768;2024-01-10T06:18:39;102630.0;;;-7.8
58307;BMP280;44116;50.884;4.768;2024-01-10T06:20:38;102620.0;;;-7.8
58307;BMP280;44116;50.884;4.768;2024-01-10T06:22:38;102609.99999999999;;;-7.8
58307;BMP280;44116;50.884;4.768;2024-01-10T06:24:37;102609.99999999999;;;-7.7
58307;BMP280;44116;50.884;4.768;2024-01-10T06:26:36;102609.99999999999;;;-7.7
58307;BMP280;44116;50.884;4.768;2024-01-10T06:28:36;102620.0;;;-7.7
58307;BMP280;44116;50.884;4.768;2024-01-10T06:30:35;102600.0;;;-7.8
58307;BMP280;44116;50.884;4.768;2024-01-10T06:32:34;102600.0;;;-7.8
58307;BMP280;44116;50.884;4.768;2024-01-10T06:34:34;102590.00000000001;;;-7.8
58307;BMP280;44116;50.884;4.768;2024-01-10T06:36:33;102590.00000000001;;;-7.8
58307;BMP280;44116;50.884;4.768;2024-01-10T06:38:32;102600.0;;;-7.7
58307;BMP280;44116;50.884;4.768;2024-01-10T06:40:32;102600.0;;;-7.7
58307;BMP280;44116;50.884;4.768;2024-01-10T06:42:31;102580.0;;;-7.9
58307;BMP280;44116;50.884;4.768;2024-01-10T06:44:31;102580.0;;;-7.8
58307;BMP280;44116;50.884;4.768;2024-01-10T06:46:30;102580.0;;;-7.9
58307;BMP280;44116;50.884;4.768;2024-01-10T06:48:29;102580.0;;;-7.9
58307;BMP280;44116;50.884;4.768;2024-01-10T06:50:29;102580.0;;;-8.1
58307;BMP280;44116;50.884;4.768;2024-01-10T06:52:28;102600.0;;;-7.9
58307;BMP280;44116;50.884;4.768;2024-01-10T06:54:27;102600.0;;;-7.9
58307;BMP280;44116;50.884;4.768;2024-01-10T06:56:27;102600.0;;;-7.8
58307;BMP280;44116;50.884;4.768;2024-01-10T06:58:26;102600.0;;;-7.9
58307;BMP280;44116;50.884;4.768;2024-01-10T07:00:25;102600.0;;;-7.9
58307;BMP280;44116;50.884;4.768;2024-01-10T07:02:25;102600.0;;;-7.9
58307;BMP280;44116;50.884;4.768;2024-01-10T07:04:26;102620.0;;;-7.7
58307;BMP280;44116;50.884;4.768;2024-01-10T07:06:23;102620.0;;;-7.8
58307;BMP280;44116;50.884;4.768;2024-01-10T07:10:22;102609.99999999999;;;-7.7
58307;BMP280;44116;50.884;4.768;2024-01-10T07:12:21;102609.99999999999;;;-7.6
58307;BMP280;44116;50.884;4.768;2024-01-10T07:14:21;102600.0;;;-7.6
58307;BMP280;44116;50.884;4.768;2024-01-10T07:16:20;102600.0;;;-7.6
58307;BMP280;44116;50.884;4.768;2024-01-10T07:18:19;102580.0;;;-7.6
58307;BMP280;44116;50.884;4.768;2024-01-10T07:20:19;102580.0;;;-7.5
58307;BMP280;44116;50.884;4.768;2024-01-10T07:22:18;102580.0;;;-7.4
58307;BMP280;44116;50.884;4.768;2024-01-10T07:24:18;102570.0;;;-7.5
58307;BMP280;44116;50.884;4.768;2024-01-10T07:26:17;102570.0;;;-7.5
58307;BMP280;44116;50.884;4.768;2024-01-10T07:28:16;102570.0;;;-7.4
58307;BMP280;44116;50.884;4.768;2024-01-10T07:30:16;102570.0;;;-7.4
58307;BMP280;44116;50.884;4.768;2024-01-10T07:32:15;102580.0;;;-7.4
58307;BMP280;44116;50.884;4.768;2024-01-10T07:34:14;102570.0;;;-7.4
58307;BMP280;44116;50.884;4.768;2024-01-10T07:36:14;102559.99999999999;;;-7.4
58307;BMP280;44116;50.884;4.768;2024-01-10T07:38:13;102559.99999999999;;;-7.3
58307;BMP280;44116;50.884;4.768;2024-01-10T07:40:12;102550.0;;;-7.2
58307;BMP280;44116;50.884;4.768;2024-01-10T07:42:12;102540.00000000001;;;-7.2
58307;BMP280;44116;50.884;4.768;2024-01-10T07:44:11;102540.00000000001;;;-7.2
58307;BMP280;44116;50.884;4.768;2024-01-10T07:46:10;102530.0;;;-7.4
58307;BMP280;44116;50.884;4.768;2024-01-10T07:48:10;102550.0;;;-7.2
58307;BMP280;44116;50.884;4.768;2024-01-10T07:50:10;102540.00000000001;;;-7.2
58307;BMP280;44116;50.884;4.768;2024-01-10T07:52:08;102530.0;;;-7.4
58307;BMP280;44116;50.884;4.768;2024-01-10T07:54:08;102550.0;;;-7.2
58307;BMP280;44116;50.884;4.768;2024-01-10T07:56:07;102550.0;;;-7.2
58307;BMP280;44116;50.884;4.768;2024-01-10T07:58:07;102559.99999999999;;;-7.1
58307;BMP280;44116;50.884;4.768;2024-01-10T08:00:06;102540.00000000001;;;-7.4
58307;BMP280;44116;50.884;4.768;2024-01-10T08:02:05;102550.0;;;-7.3
58307;BMP280;44116;50.884;4.768;2024-01-10T08:04:05;102550.0;;;-7.3
58307;BMP280;44116;50.884;4.768;2024-01-10T08:06:04;102570.0;;;-7.1
58307;BMP280;44116;50.884;4.768;2024-01-10T08:08:03;102540.00000000001;;;-7.3
58307;BMP280;44116;50.884;4.768;2024-01-10T08:10:03;102550.0;;;-7.3
58307;BMP280;44116;50.884;4.768;2024-01-10T08:12:02;102559.99999999999;;;-7.0
58307;BMP280;44116;50.884;4.768;2024-01-10T08:14:02;102550.0;;;-7.1
58307;BMP280;44116;50.884;4.768;2024-01-10T08:16:01;102559.99999999999;;;-7.0
58307;BMP280;44116;50.884;4.768;2024-01-10T08:18:00;102559.99999999999;;;-6.9
58307;BMP280;44116;50.884;4.768;2024-01-10T08:19:59;102559.99999999999;;;-7.0
58307;BMP280;44116;50.884;4.768;2024-01-10T08:21:59;102550.0;;;-7.2
58307;BMP280;44116;50.884;4.768;2024-01-10T08:23:58;102540.00000000001;;;-7.2
58307;BMP280;44116;50.884;4.768;2024-01-10T08:25:58;102540.00000000001;;;-7.0
58307;BMP280;44116;50.884;4.768;2024-01-10T08:27:57;102540.00000000001;;;-7.1
58307;BMP280;44116;50.884;4.768;2024-01-10T08:31:56;102530.0;;;-6.9
58307;BMP280;44116;50.884;4.768;2024-01-10T08:33:55;102509.99999999999;;;-7.1
58307;BMP280;44116;50.884;4.768;2024-01-10T08:35:54;102520.0;;;-6.9
58307;BMP280;44116;50.884;4.768;2024-01-10T08:37:54;102530.0;;;-6.8
58307;BMP280;44116;50.884;4.768;2024-01-10T08:39:53;102540.00000000001;;;-6.7
58307;BMP280;44116;50.884;4.768;2024-01-10T08:41:52;102540.00000000001;;;-6.7
58307;BMP280;44116;50.884;4.768;2024-01-10T08:43:52;102540.00000000001;;;-6.7
58307;BMP280;44116;50.884;4.768;2024-01-10T08:45:51;102540.00000000001;;;-6.5
58307;BMP280;44116;50.884;4.768;2024-01-10T08:47:50;102540.00000000001;;;-6.5
58307;BMP280;44116;50.884;4.768;2024-01-10T08:49:50;102520.0;;;-6.7
58307;BMP280;44116;50.884;4.768;2024-01-10T08:53:48;102530.0;;;-6.7
58307;BMP280;44116;50.884;4.768;2024-01-10T08:55:48;102520.0;;;-6.8
58307;BMP280;44116;50.884;4.768;2024-01-10T08:57:47;102530.0;;;-6.8
58307;BMP280;44116;50.884;4.768;2024-01-10T08:59:46;102540.00000000001;;;-6.6
58307;BMP280;44116;50.884;4.768;2024-01-10T09:01:46;102540.00000000001;;;-6.5
58307;BMP280;44116;50.884;4.768;2024-01-10T09:03:45;102520.0;;;-6.6
58307;BMP280;44116;50.884;4.768;2024-01-10T09:05:44;102520.0;;;-6.5
58307;BMP280;44116;50.884;4.768;2024-01-10T09:07:44;102530.0;;;-6.4
58307;BMP280;44116;50.884;4.768;2024-01-10T09:09:43;102509.99999999999;;;-6.5
58307;BMP280;44116;50.884;4.768;2024-01-10T09:11:43;102520.0;;;-6.4
58307;BMP280;44116;50.884;4.768;2024-01-10T09:13:42;102509.99999999999;;;-6.4
58307;BMP280;44116;50.884;4.768;2024-01-10T09:15:41;102509.99999999999;;;-6.2
58307;BMP280;44116;50.884;4.768;2024-01-10T09:17:41;102520.0;;;-6.1
58307;BMP280;44116;50.884;4.768;2024-01-10T09:19:40;102500.0;;;-6.2
58307;BMP280;44116;50.884;4.768;2024-01-10T09:21:39;102500.0;;;-6.2
58307;BMP280;44116;50.884;4.768;2024-01-10T09:23:39;102509.99999999999;;;-6.1
58307;BMP280;44116;50.884;4.768;2024-01-10T09:25:38;102500.0;;;-6.0
58307;BMP280;44116;50.884;4.768;2024-01-10T09:27:38;102500.0;;;-5.9
58307;BMP280;44116;50.884;4.768;2024-01-10T09:31:36;102480.0;;;-5.8
58307;BMP280;44116;50.884;4.768;2024-01-10T09:33:35;102470.0;;;-5.8
58307;BMP280;44116;50.884;4.768;2024-01-10T09:37:34;102459.99999999999;;;-5.7
58307;BMP280;44116;50.884;4.768;2024-01-10T09:39:34;102450.0;;;-5.6
58307;BMP280;44116;50.884;4.768;2024-01-10T09:41:33;102430.0;;;-5.6
58307;BMP280;44116;50.884;4.768;2024-01-10T09:43:32;102440.00000000001;;;-5.5
58307;BMP280;44116;50.884;4.768;2024-01-10T09:45:32;102420.0;;;-5.4
58307;BMP280;44116;50.884;4.768;2024-01-10T09:47:31;102400.0;;;-5.4
58307;BMP280;44116;50.884;4.768;2024-01-10T09:49:32;102390.0;;;-5.2
58307;BMP280;44116;50.884;4.768;2024-01-10T09:53:29;102360.0;;;-5.2
58307;BMP280;44116;50.884;4.768;2024-01-10T09:57:28;102330.0;;;-5.3
58307;BMP280;44116;50.884;4.768;2024-01-10T09:59:27;102330.0;;;-5.1
58307;BMP280;44116;50.884;4.768;2024-01-10T10:01:27;102330.0;;;-5.0
58307;BMP280;44116;50.884;4.768;2024-01-10T10:03:26;102300.0;;;-5.0
58307;BMP280;44116;50.884;4.768;2024-01-10T10:05:26;102290.0;;;-4.9
58307;BMP280;44116;50.884;4.768;2024-01-10T10:07:25;102280.0;;;-4.8
58307;BMP280;44116;50.884;4.768;2024-01-10T10:09:24;102250.0;;;-4.9
58307;BMP280;44116;50.884;4.768;2024-01-10T10:13:23;102230.0;;;-4.7
58307;BMP280;44116;50.884;4.768;2024-01-10T10:15:23;102240.0;;;-4.5
58307;BMP280;44116;50.884;4.768;2024-01-10T10:17:22;102220.0;;;-4.6
58307;BMP280;44116;50.884;4.768;2024-01-10T10:19:22;102210.0;;;-4.5
58307;BMP280;44116;50.884;4.768;2024-01-10T10:21:20;102200.0;;;-4.5
58307;BMP280;44116;50.884;4.768;2024-01-10T10:23:20;102190.0;;;-4.4
58307;BMP280;44116;50.884;4.768;2024-01-10T10:25:19;102200.0;;;-4.2
58307;BMP280;44116;50.884;4.768;2024-01-10T10:27:19;102180.0;;;-4.2
58307;BMP280;44116;50.884;4.768;2024-01-10T10:29:18;102160.0;;;-4.2
58307;BMP280;44116;50.884;4.768;2024-01-10T10:31:18;102150.0;;;-4.0
58307;BMP280;44116;50.884;4.768;2024-01-10T10:33:17;102110.0;;;-4.1
58307;BMP280;44116;50.884;4.768;2024-01-10T10:35:18;102090.0;;;-4.1
58307;BMP280;44116;50.884;4.768;2024-01-10T10:37:16;102080.0;;;-3.9
58307;BMP280;44116;50.884;4.768;2024-01-10T10:39:15;102040.0;;;-4.0
58307;BMP280;44116;50.884;4.768;2024-01-10T10:41:14;102030.0;;;-3.9
58307;BMP280;44116;50.884;4.768;2024-01-10T10:43:14;102000.0;;;-3.9
58307;BMP280;44116;50.884;4.768;2024-01-10T10:45:14;101960.0;;;-3.8
58307;BMP280;44116;50.884;4.768;2024-01-10T10:47:13;101920.0;;;-3.8
58307;BMP280;44116;50.884;4.768;2024-01-10T10:49:12;101900.0;;;-3.7
58307;BMP280;44116;50.884;4.768;2024-01-10T10:51:14;101890.0;;;-3.6
58307;BMP280;44116;50.884;4.768;2024-01-10T10:53:11;101850.0;;;-3.6
58307;BMP280;44116;50.884;4.768;2024-01-10T10:55:10;101820.0;;;-3.6
58307;BMP280;44116;50.884;4.768;2024-01-10T10:57:10;101770.0;;;-3.7
58307;BMP280;44116;50.884;4.768;2024-01-10T10:59:09;101770.0;;;-3.5
58307;BMP280;44116;50.884;4.768;2024-01-10T11:01:09;101740.0;;;-3.5
58307;BMP280;44116;50.884;4.768;2024-01-10T11:03:08;101720.0;;;-3.4
58307;BMP280;44116;50.884;4.768;2024-01-10T11:05:08;101690.0;;;-3.4
58307;BMP280;44116;50.884;4.768;2024-01-10T11:07:07;101660.0;;;-3.4
58307;BMP280;44116;50.884;4.768;2024-01-10T11:09:07;101630.0;;;-3.3
58307;BMP280;44116;50.884;4.768;2024-01-10T11:11:07;101600.0;;;-3.3
58307;BMP280;44116;50.884;4.768;2024-01-10T11:13:10;101590.0;;;-3.3
58307;BMP280;44116;50.884;4.768;2024-01-10T11:15:09;101570.0;;;-3.2
58307;BMP280;44116;50.884;4.768;2024-01-10T11:17:08;101570.0;;;-3.1
58307;BMP280;44116;50.884;4.768;2024-01-10T11:19:10;101520.0;;;-3.1
58307;BMP280;44116;50.884;4.768;2024-01-10T11:21:07;101500.0;;;-3.0
58307;BMP280;44116;50.884;4.768;2024-01-10T11:23:10;101470.0;;;-3.0
58307;BMP280;44116;50.884;4.768;2024-01-10T11:25:02;101480.0;;;-2.8
58307;BMP280;44116;50.884;4.768;2024-01-10T11:27:10;101440.0;;;-2.8
58307;BMP280;44116;50.884;4.768;2024-01-10T11:29:00;101410.0;;;-3.0
58307;BMP280;44116;50.884;4.768;2024-01-10T11:31:00;101400.0;;;-2.9
58307;BMP280;44116;50.884;4.768;2024-01-10T11:33:00;101380.0;;;-2.8
58307;BMP280;44116;50.884;4.768;2024-01-10T11:34:59;101360.0;;;-2.8
58307;BMP280;44116;50.884;4.768;2024-01-10T11:38:58;101310.0;;;-2.9
58307;BMP280;44116;50.884;4.768;2024-01-10T11:40:57;101310.0;;;-2.8
58307;BMP280;44116;50.884;4.768;2024-01-10T11:42:57;101300.0;;;-2.7
58307;BMP280;44116;50.884;4.768;2024-01-10T11:44:56;101270.0;;;-2.7
58307;BMP280;44116;50.884;4.768;2024-01-10T11:46:56;101280.0;;;-2.6
58307;BMP280;44116;50.884;4.768;2024-01-10T11:48:55;101250.0;;;-2.6
58307;BMP280;44116;50.884;4.768;2024-01-10T11:50:54;101220.0;;;-2.6